Time;durP1;ratioP1;P1;durP2;ratioP2;P2;SDS_P1;SDS_P2;PMS_P1;PMS_P2;Temp;Humidity;BMP_temperature;BMP_pressure;BME280_temperature;BME280_humidity;BME280_pressure;Samples;Min_cycle;Max_cycle;Signal;HPM_P1;HPM_P2
2022/11/19 00:00:44;;;;;;;1.27;0.90;;;;;;;;;;5051123;28;20552;-45
2022/11/19 00:03:14;;;;;;;1.73;0.70;;;;;;;;;;5051042;28;20406;-45
2022/11/19 00:05:41;;;;;;;1.08;0.70;;;;;;;;;;5051900;28;20082;-48
2022/11/19 00:08:07;;;;;;;1.10;0.75;;;;;;;;;;5052404;28;20032;-45
2022/11/19 00:10:37;;;;;;;1.35;0.60;;;;;;;;;;5051545;28;20066;-45
2022/11/19 00:13:03;;;;;;;1.35;0.77;;;;;;;;;;5051748;28;20656;-44
2022/11/19 00:15:29;;;;;;;1.52;0.80;;;;;;;;;;5050734;28;20040;-45
2022/11/19 00:17:59;;;;;;;1.95;1.00;;;;;;;;;;5051547;28;20025;-45
2022/11/19 00:20:25;;;;;;;1.17;0.80;;;;;;;;;;5049852;28;20076;-45
2022/11/19 00:22:52;;;;;;;1.65;0.70;;;;;;;;;;5051542;28;20033;-42
2022/11/19 00:25:18;;;;;;;0.55;0.50;;;;;;;;;;5051550;28;20033;-45
2022/11/19 00:27:44;;;;;;;1.08;0.70;;;;;;;;;;5050438;28;20091;-45
2022/11/19 00:30:11;;;;;;;1.38;0.75;;;;;;;;;;5051171;28;20033;-44
2022/11/19 00:32:36;;;;;;;3.85;1.40;;;;;;;;;;5051986;28;20370;-44
2022/11/19 00:35:03;;;;;;;0.98;0.60;;;;;;;;;;5050570;28;20079;-45
2022/11/19 00:37:29;;;;;;;1.67;0.73;;;;;;;;;;5050721;28;20079;-45
2022/11/19 00:39:55;;;;;;;0.50;0.47;;;;;;;;;;5050696;28;20485;-45
2022/11/19 00:42:22;;;;;;;1.10;0.60;;;;;;;;;;5051210;28;20494;-47
2022/11/19 00:44:48;;;;;;;0.70;0.50;;;;;;;;;;5050758;28;20029;-45
2022/11/19 00:47:14;;;;;;;0.80;0.60;;;;;;;;;;5049349;28;20358;-46
2022/11/19 00:49:40;;;;;;;1.00;0.60;;;;;;;;;;5050598;28;20021;-48
2022/11/19 00:52:06;;;;;;;1.10;0.70;;;;;;;;;;5050175;28;20056;-45
2022/11/19 00:54:32;;;;;;;1.95;0.73;;;;;;;;;;5051811;28;20378;-45
2022/11/19 00:56:58;;;;;;;0.90;0.57;;;;;;;;;;5050560;28;20029;-45
2022/11/19 00:59:24;;;;;;;1.05;0.50;;;;;;;;;;5051448;28;20017;-45
2022/11/19 01:01:50;;;;;;;0.80;0.57;;;;;;;;;;5049415;28;20064;-47
2022/11/19 01:04:16;;;;;;;0.85;0.55;;;;;;;;;;5037253;28;20021;-44
2022/11/19 01:06:42;;;;;;;0.88;0.50;;;;;;;;;;5050757;28;20025;-47
2022/11/19 01:09:08;;;;;;;0.50;0.40;;;;;;;;;;5051067;28;20033;-44
2022/11/19 01:11:35;;;;;;;0.95;0.63;;;;;;;;;;5051192;28;20021;-44
2022/11/19 01:14:02;;;;;;;0.88;0.60;;;;;;;;;;5048335;28;20056;-45
2022/11/19 01:16:29;;;;;;;1.50;0.55;;;;;;;;;;5047312;28;20100;-44
2022/11/19 01:18:55;;;;;;;0.80;0.50;;;;;;;;;;5050520;28;20513;-44
2022/11/19 01:21:22;;;;;;;1.10;0.80;;;;;;;;;;5050421;28;20502;-44
2022/11/19 01:23:49;;;;;;;1.73;1.23;;;;;;;;;;5050813;28;20127;-44
2022/11/19 01:26:16;;;;;;;1.23;0.57;;;;;;;;;;5050392;28;20025;-44
2022/11/19 01:28:42;;;;;;;0.70;0.50;;;;;;;;;;5051110;28;20044;-48
2022/11/19 01:31:16;;;;;;;0.85;0.57;;;;;;;;;;5050522;28;20509;-44
2022/11/19 01:33:42;;;;;;;1.20;0.70;;;;;;;;;;5049914;28;20117;-47
2022/11/19 01:36:13;;;;;;;0.70;0.50;;;;;;;;;;5049677;28;20025;-44
2022/11/19 01:38:39;;;;;;;0.60;0.50;;;;;;;;;;5051567;28;20028;-44
2022/11/19 01:41:05;;;;;;;1.50;1.17;;;;;;;;;;5050156;28;20103;-45
2022/11/19 01:43:58;;;;;;;1.00;0.55;;;;;;;;;;5051352;28;20577;-44
2022/11/19 01:46:31;;;;;;;1.17;0.70;;;;;;;;;;5011807;28;20063;-44
2022/11/19 01:49:05;;;;;;;0.60;0.50;;;;;;;;;;5049749;28;20083;-46
2022/11/19 01:51:38;;;;;;;1.00;0.70;;;;;;;;;;5050837;28;20052;-45
2022/11/19 01:54:08;;;;;;;0.57;0.50;;;;;;;;;;5050779;28;20033;-44
2022/11/19 01:56:34;;;;;;;2.67;0.50;;;;;;;;;;5054402;28;20021;-44
2022/11/19 01:59:03;;;;;;;0.88;0.63;;;;;;;;;;5053124;28;20781;-44
2022/11/19 02:01:30;;;;;;;0.88;0.50;;;;;;;;;;5054182;28;20107;-44
2022/11/19 02:03:59;;;;;;;0.57;0.50;;;;;;;;;;5054245;28;20025;-44
2022/11/19 02:06:25;;;;;;;0.45;0.40;;;;;;;;;;5052991;28;20486;-44
2022/11/19 02:08:52;;;;;;;0.60;0.43;;;;;;;;;;5053927;28;20083;-44
2022/11/19 02:11:21;;;;;;;0.60;0.50;;;;;;;;;;5052532;28;20637;-44
2022/11/19 02:14:06;;;;;;;0.80;0.45;;;;;;;;;;5023640;28;20033;-44
2022/11/19 02:16:48;;;;;;;0.47;0.30;;;;;;;;;;5051009;28;20021;-44
2022/11/19 02:19:37;;;;;;;0.85;0.57;;;;;;;;;;5055165;28;20125;-44
2022/11/19 02:22:22;;;;;;;1.35;0.63;;;;;;;;;;4992576;28;20125;-44
2022/11/19 02:24:53;;;;;;;0.88;0.50;;;;;;;;;;5030051;28;20049;-44
2022/11/19 02:27:19;;;;;;;0.68;0.40;;;;;;;;;;5034641;28;20076;-45
2022/11/19 02:29:54;;;;;;;0.63;0.50;;;;;;;;;;5032250;28;20033;-48
2022/11/19 02:32:25;;;;;;;0.80;0.60;;;;;;;;;;5014787;28;20037;-44
2022/11/19 02:35:01;;;;;;;0.65;0.38;;;;;;;;;;5015108;28;20033;-44
2022/11/19 02:37:33;;;;;;;0.82;0.43;;;;;;;;;;5033469;28;20487;-44
2022/11/19 02:40:06;;;;;;;1.23;0.50;;;;;;;;;;5031854;28;20029;-44
2022/11/19 02:42:44;;;;;;;0.65;0.43;;;;;;;;;;5034218;28;20052;-44
2022/11/19 02:45:13;;;;;;;0.65;0.32;;;;;;;;;;5033892;28;20040;-44
2022/11/19 02:47:41;;;;;;;0.52;0.35;;;;;;;;;;5030538;28;20040;-44
2022/11/19 02:50:09;;;;;;;0.80;0.47;;;;;;;;;;5033157;28;20033;-44
2022/11/19 02:52:36;;;;;;;0.43;0.40;;;;;;;;;;5033466;28;20025;-44
2022/11/19 02:55:03;;;;;;;0.40;0.40;;;;;;;;;;5031474;28;20158;-44
2022/11/19 02:57:28;;;;;;;1.20;0.57;;;;;;;;;;5033571;28;20032;-44
2022/11/19 03:06:04;;;;;;;1.42;0.50;;;;;;;;;;4951977;28;20066;-44
2022/11/19 03:08:30;;;;;;;0.80;0.43;;;;;;;;;;4953367;29;20102;-44
2022/11/19 03:11:22;;;;;;;0.52;0.40;;;;;;;;;;4991903;28;20498;-44
2022/11/19 03:16:47;;;;;;;0.40;0.40;;;;;;;;;;5050615;28;20036;-47
2022/11/19 03:19:13;;;;;;;1.00;0.60;;;;;;;;;;5053617;28;20017;-44
2022/11/19 03:21:47;;;;;;;1.02;0.60;;;;;;;;;;5052453;28;20406;-44
2022/11/19 03:24:15;;;;;;;0.60;0.40;;;;;;;;;;5036963;28;20040;-45
2022/11/19 03:26:53;;;;;;;0.70;0.50;;;;;;;;;;5032754;28;20522;-49
2022/11/19 03:29:22;;;;;;;0.50;0.40;;;;;;;;;;5033264;28;20104;-46
2022/11/19 03:31:51;;;;;;;0.80;0.40;;;;;;;;;;5031285;28;20033;-45
2022/11/19 03:34:19;;;;;;;0.50;0.50;;;;;;;;;;5033379;28;20502;-44
2022/11/19 03:36:47;;;;;;;0.57;0.40;;;;;;;;;;5030912;28;20033;-45
2022/11/19 03:39:15;;;;;;;1.02;0.40;;;;;;;;;;5032880;28;20096;-44
2022/11/19 03:41:41;;;;;;;0.57;0.40;;;;;;;;;;5032667;28;20222;-48
2022/11/19 03:44:11;;;;;;;0.30;0.30;;;;;;;;;;5032720;28;20025;-44
2022/11/19 03:46:39;;;;;;;0.50;0.40;;;;;;;;;;5027903;28;20808;-44
2022/11/19 03:49:06;;;;;;;0.90;0.55;;;;;;;;;;5020803;28;20073;-44
2022/11/19 03:51:37;;;;;;;0.57;0.35;;;;;;;;;;5021709;28;20026;-44
2022/11/19 03:54:03;;;;;;;0.50;0.47;;;;;;;;;;5021508;28;20069;-45
2022/11/19 03:56:30;;;;;;;0.45;0.45;;;;;;;;;;5020938;28;20408;-45
2022/11/19 03:58:58;;;;;;;0.57;0.50;;;;;;;;;;5021503;28;20407;-45
2022/11/19 04:01:25;;;;;;;0.80;0.50;;;;;;;;;;5022289;28;20490;-45
2022/11/19 04:09:13;;;;;;;0.60;0.30;;;;;;;;;;5364151;23;20915;-38
2022/11/19 04:11:39;;;;;;;0.43;0.35;;;;;;;;;;4974447;28;20084;-38
2022/11/19 04:14:05;;;;;;;1.13;0.60;;;;;;;;;;4989959;28;20471;-39
2022/11/19 04:16:31;;;;;;;1.98;0.45;;;;;;;;;;4986202;28;20029;-38
2022/11/19 04:18:57;;;;;;;0.75;0.35;;;;;;;;;;4993161;28;20113;-38
2022/11/19 04:21:23;;;;;;;1.35;0.40;;;;;;;;;;4999770;28;20101;-40
2022/11/19 04:23:49;;;;;;;0.50;0.40;;;;;;;;;;4993392;28;20037;-38
2022/11/19 04:26:15;;;;;;;0.50;0.40;;;;;;;;;;4992634;28;20030;-39
2022/11/19 04:28:41;;;;;;;0.45;0.30;;;;;;;;;;4990907;28;20022;-38
2022/11/19 04:31:07;;;;;;;1.10;0.38;;;;;;;;;;4991461;28;20029;-38
2022/11/19 04:33:33;;;;;;;0.50;0.40;;;;;;;;;;4994633;28;20117;-38
2022/11/19 04:35:59;;;;;;;0.52;0.30;;;;;;;;;;4992352;28;20426;-38
2022/11/19 04:38:25;;;;;;;0.45;0.45;;;;;;;;;;4992296;28;20105;-41
2022/11/19 04:40:51;;;;;;;0.60;0.40;;;;;;;;;;4992002;28;20050;-38
2022/11/19 04:43:17;;;;;;;0.28;0.28;;;;;;;;;;4992961;28;20186;-38
2022/11/19 04:45:43;;;;;;;0.98;0.47;;;;;;;;;;4989993;28;20841;-38
2022/11/19 04:48:09;;;;;;;1.05;0.52;;;;;;;;;;4991082;28;20023;-39
2022/11/19 04:50:35;;;;;;;0.95;0.45;;;;;;;;;;4994007;28;20033;-38
2022/11/19 04:53:01;;;;;;;0.50;0.40;;;;;;;;;;4991867;28;20027;-38
2022/11/19 04:55:27;;;;;;;0.55;0.30;;;;;;;;;;4990864;28;20066;-41
2022/11/19 04:57:52;;;;;;;1.65;0.60;;;;;;;;;;4992583;28;20022;-38
2022/11/19 05:00:19;;;;;;;0.30;0.30;;;;;;;;;;4991816;28;20478;-38
2022/11/19 05:02:45;;;;;;;0.85;0.30;;;;;;;;;;4990516;28;20030;-38
2022/11/19 05:05:11;;;;;;;0.60;0.40;;;;;;;;;;4991129;28;20080;-38
2022/11/19 05:07:37;;;;;;;0.57;0.40;;;;;;;;;;4991768;28;20027;-38
2022/11/19 05:10:04;;;;;;;0.70;0.40;;;;;;;;;;4991702;28;20081;-38
2022/11/19 05:12:30;;;;;;;0.65;0.40;;;;;;;;;;4990863;28;20034;-38
2022/11/19 05:14:56;;;;;;;0.50;0.30;;;;;;;;;;4992046;28;20026;-38
2022/11/19 05:17:22;;;;;;;0.68;0.50;;;;;;;;;;4991271;28;20031;-38
2022/11/19 05:19:48;;;;;;;0.40;0.40;;;;;;;;;;4991193;28;20696;-38
2022/11/19 05:22:14;;;;;;;0.80;0.40;;;;;;;;;;4992392;28;20102;-38
2022/11/19 05:24:40;;;;;;;0.38;0.35;;;;;;;;;;4993066;28;20034;-38
2022/11/19 05:27:05;;;;;;;1.05;0.40;;;;;;;;;;4991942;28;20061;-38
2022/11/19 05:29:32;;;;;;;0.40;0.30;;;;;;;;;;4992267;28;20026;-38
2022/11/19 05:31:57;;;;;;;0.63;0.45;;;;;;;;;;4995239;28;20494;-38
2022/11/19 05:34:23;;;;;;;0.30;0.30;;;;;;;;;;4994394;28;20038;-38
2022/11/19 05:36:49;;;;;;;0.95;0.30;;;;;;;;;;4994481;28;20429;-38
2022/11/19 05:39:15;;;;;;;0.82;0.50;;;;;;;;;;4996252;28;20037;-38
2022/11/19 05:41:41;;;;;;;0.30;0.20;;;;;;;;;;4994697;28;20117;-38
2022/11/19 05:44:07;;;;;;;0.30;0.30;;;;;;;;;;4995774;28;20502;-38
2022/11/19 05:46:33;;;;;;;0.60;0.40;;;;;;;;;;4993484;28;20093;-38
2022/11/19 05:48:59;;;;;;;0.88;0.40;;;;;;;;;;4996145;28;20426;-38
2022/11/19 05:51:25;;;;;;;0.68;0.65;;;;;;;;;;4994325;28;20089;-38
2022/11/19 05:53:51;;;;;;;0.90;0.40;;;;;;;;;;5003930;28;20030;-38
2022/11/19 05:56:17;;;;;;;2.03;0.60;;;;;;;;;;4995199;28;20022;-38
2022/11/19 05:58:43;;;;;;;0.30;0.30;;;;;;;;;;4994892;28;20356;-38
2022/11/19 06:01:09;;;;;;;0.50;0.30;;;;;;;;;;4994375;28;20061;-39
2022/11/19 06:03:35;;;;;;;1.75;0.30;;;;;;;;;;4994546;28;20034;-38
2022/11/19 06:06:01;;;;;;;0.35;0.30;;;;;;;;;;4995134;28;20109;-38
2022/11/19 06:08:27;;;;;;;0.80;0.60;;;;;;;;;;4994447;28;20545;-41
2022/11/19 06:10:53;;;;;;;0.50;0.50;;;;;;;;;;4992159;28;20384;-40
2022/11/19 06:13:19;;;;;;;0.30;0.30;;;;;;;;;;4995093;28;20110;-38
2022/11/19 06:15:45;;;;;;;0.60;0.30;;;;;;;;;;4994209;28;20089;-38
2022/11/19 06:18:11;;;;;;;0.52;0.35;;;;;;;;;;4995164;28;20145;-38
2022/11/19 06:20:37;;;;;;;1.20;0.32;;;;;;;;;;4985160;28;20098;-38
2022/11/19 06:23:03;;;;;;;0.80;0.45;;;;;;;;;;4987860;28;20038;-38
2022/11/19 06:25:29;;;;;;;1.02;0.40;;;;;;;;;;4982980;28;20035;-41
2022/11/19 06:27:55;;;;;;;0.50;0.40;;;;;;;;;;4980401;28;20031;-38
2022/11/19 06:30:21;;;;;;;0.75;0.40;;;;;;;;;;4989298;28;20029;-38
2022/11/19 06:32:47;;;;;;;0.47;0.30;;;;;;;;;;4987549;28;20035;-39
2022/11/19 06:35:13;;;;;;;0.63;0.40;;;;;;;;;;4988448;28;20060;-38
2022/11/19 06:37:39;;;;;;;1.33;0.43;;;;;;;;;;4983275;28;20023;-38
2022/11/19 06:40:05;;;;;;;0.30;0.30;;;;;;;;;;4980334;28;20026;-39
2022/11/19 06:42:37;;;;;;;0.40;0.38;;;;;;;;;;4984139;28;20498;-38
2022/11/19 06:45:05;;;;;;;1.38;0.50;;;;;;;;;;4980580;28;20035;-38
2022/11/19 06:47:31;;;;;;;0.50;0.38;;;;;;;;;;4987399;28;20026;-40
2022/11/19 06:49:57;;;;;;;0.35;0.30;;;;;;;;;;4986722;28;20022;-38
2022/11/19 06:52:23;;;;;;;0.43;0.43;;;;;;;;;;4980166;28;20486;-38
2022/11/19 06:54:49;;;;;;;0.50;0.40;;;;;;;;;;4984212;28;20026;-38
2022/11/19 06:57:15;;;;;;;0.95;0.50;;;;;;;;;;4988897;28;20025;-38
2022/11/19 06:59:41;;;;;;;0.50;0.30;;;;;;;;;;4986621;28;20459;-38
2022/11/19 07:02:07;;;;;;;0.30;0.30;;;;;;;;;;4984129;28;20026;-38
2022/11/19 07:04:33;;;;;;;1.45;0.40;;;;;;;;;;4985858;28;20033;-38
2022/11/19 07:06:59;;;;;;;0.20;0.20;;;;;;;;;;4983107;28;20034;-38
2022/11/19 07:09:25;;;;;;;0.63;0.30;;;;;;;;;;4981980;28;20018;-38
2022/11/19 07:11:51;;;;;;;0.38;0.38;;;;;;;;;;4972329;28;20480;-39
2022/11/19 07:14:17;;;;;;;0.47;0.30;;;;;;;;;;4973599;28;20034;-38
2022/11/19 07:16:43;;;;;;;0.35;0.30;;;;;;;;;;4972297;28;20033;-38
2022/11/19 07:19:09;;;;;;;0.40;0.20;;;;;;;;;;4973631;28;20053;-38
2022/11/19 07:21:35;;;;;;;0.60;0.47;;;;;;;;;;4966958;28;20496;-38
2022/11/19 07:24:03;;;;;;;1.30;0.20;;;;;;;;;;4972714;28;20029;-38
2022/11/19 07:26:30;;;;;;;0.50;0.50;;;;;;;;;;4972490;28;20019;-41
2022/11/19 07:28:56;;;;;;;0.30;0.30;;;;;;;;;;4973345;28;20031;-38
2022/11/19 07:31:23;;;;;;;0.57;0.30;;;;;;;;;;4971152;28;20053;-37
2022/11/19 07:33:49;;;;;;;0.30;0.30;;;;;;;;;;4973605;28;20629;-38
2022/11/19 07:36:15;;;;;;;1.00;0.90;;;;;;;;;;4972084;28;20093;-38
2022/11/19 07:38:41;;;;;;;0.52;0.40;;;;;;;;;;4948997;28;20039;-38
2022/11/19 07:42:48;;;;;;;0.90;0.20;;;;;;;;;;4972086;28;20041;-40
2022/11/19 07:43:53;;;;;;;0.45;0.30;;;;;;;;;;4970746;28;20043;-40
2022/11/19 07:46:19;;;;;;;0.28;0.20;;;;;;;;;;4970497;28;20117;-40
2022/11/19 07:48:45;;;;;;;1.38;0.40;;;;;;;;;;4966154;28;20042;-39
2022/11/19 07:51:11;;;;;;;0.30;0.30;;;;;;;;;;4980537;28;20078;-39
2022/11/19 07:53:37;;;;;;;0.95;0.40;;;;;;;;;;4975888;28;20054;-39
2022/11/19 07:56:03;;;;;;;0.70;0.40;;;;;;;;;;4971556;28;20442;-40
2022/11/19 07:58:29;;;;;;;0.70;0.45;;;;;;;;;;4972172;28;20050;-42
2022/11/19 08:00:55;;;;;;;0.60;0.38;;;;;;;;;;4971983;28;20026;-39
2022/11/19 08:03:21;;;;;;;0.65;0.40;;;;;;;;;;4960640;28;20058;-39
2022/11/19 08:05:47;;;;;;;0.45;0.22;;;;;;;;;;4971059;28;20045;-39
2022/11/19 08:08:13;;;;;;;0.50;0.30;;;;;;;;;;4969851;28;20404;-41
2022/11/19 08:10:39;;;;;;;1.17;0.45;;;;;;;;;;4975313;28;20125;-39
2022/11/19 08:13:06;;;;;;;0.30;0.30;;;;;;;;;;4981858;28;20039;-40
2022/11/19 08:15:33;;;;;;;0.30;0.28;;;;;;;;;;4990667;28;20493;-43
2022/11/19 08:18:11;;;;;;;2.10;0.68;;;;;;;;;;4984563;28;20038;-41
2022/11/19 08:20:38;;;;;;;2.33;0.57;;;;;;;;;;4990410;28;20352;-38
2022/11/19 08:23:04;;;;;;;2.20;0.40;;;;;;;;;;4987909;28;20034;-40
2022/11/19 08:25:30;;;;;;;7.15;0.40;;;;;;;;;;4990722;28;20090;-41
2022/11/19 08:27:56;;;;;;;0.85;0.40;;;;;;;;;;4983561;28;20049;-39
2022/11/19 08:30:22;;;;;;;1.00;0.40;;;;;;;;;;4990836;28;20054;-39
2022/11/19 08:32:48;;;;;;;1.67;0.52;;;;;;;;;;4986373;28;20050;-40
2022/11/19 08:35:14;;;;;;;1.48;0.38;;;;;;;;;;4990814;28;20026;-39
2022/11/19 08:37:40;;;;;;;1.15;0.40;;;;;;;;;;4985413;28;20073;-40
2022/11/19 08:40:07;;;;;;;0.63;0.43;;;;;;;;;;4989284;28;20030;-42
2022/11/19 08:43:18;;;;;;;0.50;0.40;;;;;;;;;;4985177;28;20023;-40
2022/11/19 08:45:21;;;;;;;5.32;0.88;;;;;;;;;;4979195;28;20049;-39
2022/11/19 08:47:47;;;;;;;1.38;0.40;;;;;;;;;;4978218;28;20387;-39
2022/11/19 08:50:13;;;;;;;2.85;0.90;;;;;;;;;;4989201;28;20450;-40
2022/11/19 08:52:39;;;;;;;1.48;0.73;;;;;;;;;;4986185;28;20030;-40
2022/11/19 08:55:05;;;;;;;0.93;0.30;;;;;;;;;;4990550;28;20050;-39
2022/11/19 08:57:31;;;;;;;0.95;0.40;;;;;;;;;;4983561;28;20027;-41
2022/11/19 08:59:57;;;;;;;0.20;0.20;;;;;;;;;;4989174;28;20049;-39
2022/11/19 09:02:23;;;;;;;0.30;0.30;;;;;;;;;;4984909;28;20027;-39
2022/11/19 09:04:49;;;;;;;1.05;0.55;;;;;;;;;;4988607;28;20056;-40
2022/11/19 09:07:15;;;;;;;0.50;0.38;;;;;;;;;;4984896;28;20022;-39
2022/11/19 09:09:41;;;;;;;0.70;0.30;;;;;;;;;;4990135;28;20128;-40
2022/11/19 09:12:07;;;;;;;0.98;0.40;;;;;;;;;;4986280;28;20026;-40
2022/11/19 09:14:33;;;;;;;1.95;0.50;;;;;;;;;;4990558;28;20046;-41
2022/11/19 09:17:00;;;;;;;1.10;0.50;;;;;;;;;;4985680;28;20026;-38
2022/11/19 09:19:26;;;;;;;1.02;0.93;;;;;;;;;;4991232;28;20038;-39
2022/11/19 09:21:52;;;;;;;0.90;0.40;;;;;;;;;;4986944;28;20076;-41
2022/11/19 09:24:18;;;;;;;2.25;0.77;;;;;;;;;;4986907;28;20515;-39
2022/11/19 09:26:44;;;;;;;1.77;0.50;;;;;;;;;;4988885;28;20038;-39
2022/11/19 09:29:10;;;;;;;1.17;0.40;;;;;;;;;;4989362;28;20038;-39
2022/11/19 09:31:36;;;;;;;1.73;0.40;;;;;;;;;;4988222;28;20150;-39
2022/11/19 09:34:02;;;;;;;2.33;0.52;;;;;;;;;;4979232;28;20056;-39
2022/11/19 09:36:28;;;;;;;0.98;0.50;;;;;;;;;;4989825;28;20030;-39
2022/11/19 09:38:58;;;;;;;1.30;0.35;;;;;;;;;;4979261;28;20054;-39
2022/11/19 09:41:26;;;;;;;1.17;0.60;;;;;;;;;;4989965;28;20044;-39
2022/11/19 09:43:58;;;;;;;0.73;0.45;;;;;;;;;;4979704;28;20050;-40
2022/11/19 09:46:24;;;;;;;;;;;;;;;;;;4990099;28;20337;-39
2022/11/19 09:48:52;;;;;;;1.75;0.60;;;;;;;;;;4985393;28;19972;-40
2022/11/19 09:51:20;;;;;;;1.73;0.40;;;;;;;;;;4989859;28;20030;-39
2022/11/19 09:53:54;;;;;;;0.63;0.40;;;;;;;;;;4988282;28;20438;-39
2022/11/19 09:56:32;;;;;;;1.00;0.82;;;;;;;;;;4990277;28;20046;-39
2022/11/19 09:58:59;;;;;;;1.55;0.93;;;;;;;;;;4977028;28;20046;-39
2022/11/19 10:01:29;;;;;;;1.05;0.50;;;;;;;;;;4990747;28;20069;-39
2022/11/19 10:03:55;;;;;;;1.13;0.75;;;;;;;;;;4978027;28;20070;-41
2022/11/19 10:06:25;;;;;;;0.55;0.40;;;;;;;;;;4989521;28;20027;-39
2022/11/19 10:09:09;;;;;;;1.48;0.47;;;;;;;;;;4978443;28;20033;-40
2022/11/19 10:11:39;;;;;;;0.45;0.30;;;;;;;;;;4986579;28;20178;-39
2022/11/19 10:14:18;;;;;;;2.80;1.13;;;;;;;;;;4981823;28;20038;-39
2022/11/19 10:16:51;;;;;;;4.00;0.43;;;;;;;;;;4991231;28;20026;-38
2022/11/19 10:19:36;;;;;;;0.50;0.32;;;;;;;;;;4988701;28;20116;-38
2022/11/19 10:22:28;;;;;;;1.90;0.50;;;;;;;;;;4989693;28;20074;-38
2022/11/19 10:25:11;;;;;;;1.30;0.50;;;;;;;;;;4986002;28;20108;-40
2022/11/19 10:27:42;;;;;;;0.70;0.30;;;;;;;;;;4986343;28;20031;-39
2022/11/19 10:30:13;;;;;;;0.82;0.40;;;;;;;;;;4993132;28;20045;-40
2022/11/19 10:32:41;;;;;;;0.83;0.40;;;;;;;;;;4986803;28;20045;-39
2022/11/19 10:35:14;;;;;;;0.40;0.30;;;;;;;;;;4990677;28;20286;-38
2022/11/19 10:37:45;;;;;;;0.73;0.40;;;;;;;;;;4988443;28;20058;-39
2022/11/19 10:40:13;;;;;;;0.40;0.40;;;;;;;;;;4992843;28;20823;-39
2022/11/19 10:42:41;;;;;;;0.50;0.45;;;;;;;;;;4988976;28;20107;-39
2022/11/19 10:45:24;;;;;;;1.73;0.95;;;;;;;;;;4992245;28;20050;-39
2022/11/19 10:48:05;;;;;;;0.90;0.50;;;;;;;;;;4987895;28;20494;-39
2022/11/19 10:50:31;;;;;;;1.57;0.50;;;;;;;;;;4989523;28;20671;-39
2022/11/19 10:52:59;;;;;;;0.65;0.60;;;;;;;;;;4991991;28;20278;-38
2022/11/19 10:55:29;;;;;;;1.13;0.60;;;;;;;;;;4992914;28;20046;-39
2022/11/19 10:58:16;;;;;;;1.13;0.30;;;;;;;;;;4990922;28;20038;-39
2022/11/19 11:00:42;;;;;;;1.77;0.40;;;;;;;;;;4941936;28;20030;-39
2022/11/19 11:03:28;;;;;;;1.00;0.47;;;;;;;;;;4992223;28;20058;-39
2022/11/19 11:05:56;;;;;;;1.02;0.40;;;;;;;;;;4980393;28;20038;-39
2022/11/19 11:08:22;;;;;;;0.85;0.65;;;;;;;;;;4985277;28;20029;-39
2022/11/19 11:10:49;;;;;;;3.65;0.30;;;;;;;;;;4991390;28;20050;-39
2022/11/19 11:16:14;;;;;;;3.05;0.40;;;;;;;;;;4993880;28;20029;-40
2022/11/19 11:18:40;;;;;;;0.40;0.40;;;;;;;;;;4983871;28;20030;-40
2022/11/19 11:21:11;;;;;;;0.95;0.50;;;;;;;;;;4990832;28;20166;-40
2022/11/19 11:23:46;;;;;;;0.50;0.50;;;;;;;;;;4989661;28;20034;-42
2022/11/19 11:26:18;;;;;;;0.55;0.40;;;;;;;;;;4991043;28;20141;-39
2022/11/19 11:28:59;;;;;;;1.00;0.40;;;;;;;;;;4983386;28;20027;-39
2022/11/19 11:31:29;;;;;;;13.90;0.55;;;;;;;;;;4992430;28;20101;-38
2022/11/19 11:33:56;;;;;;;2.85;0.70;;;;;;;;;;4991131;28;20069;-41
2022/11/19 11:36:24;;;;;;;2.55;0.70;;;;;;;;;;4991156;28;20043;-39
2022/11/19 11:38:52;;;;;;;1.33;0.65;;;;;;;;;;4985803;28;20110;-40
2022/11/19 11:41:18;;;;;;;1.67;0.45;;;;;;;;;;4990976;28;20042;-39
2022/11/19 11:44:04;;;;;;;4.55;1.00;;;;;;;;;;4985927;28;20430;-42
2022/11/19 11:46:42;;;;;;;0.52;0.35;;;;;;;;;;4991505;28;20050;-41
2022/11/19 11:49:12;;;;;;;1.77;0.50;;;;;;;;;;4989552;28;20042;-40
2022/11/19 11:51:39;;;;;;;1.70;0.50;;;;;;;;;;4990327;28;20069;-42
2022/11/19 11:54:06;;;;;;;6.55;0.63;;;;;;;;;;4991869;28;20049;-38
2022/11/19 11:56:32;;;;;;;10.35;1.45;;;;;;;;;;4989104;28;20042;-39
2022/11/19 11:59:13;;;;;;;1.60;1.00;;;;;;;;;;4990767;28;20034;-38
2022/11/19 12:01:52;;;;;;;3.85;0.80;;;;;;;;;;4990357;28;20142;-39
2022/11/19 12:04:18;;;;;;;4.57;0.63;;;;;;;;;;4980655;28;20049;-38
2022/11/19 12:06:53;;;;;;;3.05;0.77;;;;;;;;;;4989606;28;20046;-38
2022/11/19 12:09:31;;;;;;;4.72;1.10;;;;;;;;;;4982509;28;20031;-38
2022/11/19 12:11:57;;;;;;;1.42;0.50;;;;;;;;;;4986526;28;20070;-40
2022/11/19 12:14:38;;;;;;;2.25;0.60;;;;;;;;;;4985001;28;20046;-40
2022/11/19 12:17:04;;;;;;;1.77;0.65;;;;;;;;;;4985604;28;20095;-39
2022/11/19 12:20:02;;;;;;;2.28;0.50;;;;;;;;;;4988987;28;20030;-39
2022/11/19 12:22:28;;;;;;;2.17;0.50;;;;;;;;;;4933929;28;20102;-40
2022/11/19 12:25:06;;;;;;;2.72;0.60;;;;;;;;;;4990144;28;20100;-41
2022/11/19 12:27:48;;;;;;;5.00;0.80;;;;;;;;;;4984034;28;20043;-40
2022/11/19 12:30:22;;;;;;;2.17;0.70;;;;;;;;;;4988300;28;20040;-38
2022/11/19 12:33:26;;;;;;;3.60;0.50;;;;;;;;;;4985460;28;20371;-40
2022/11/19 12:36:11;;;;;;;2.83;0.73;;;;;;;;;;4890424;29;20094;-39
2022/11/19 12:38:46;;;;;;;3.72;0.85;;;;;;;;;;4893332;29;20029;-40
2022/11/19 12:41:15;;;;;;;2.22;0.55;;;;;;;;;;4956669;28;20479;-39
2022/11/19 12:43:47;;;;;;;5.68;1.10;;;;;;;;;;4987203;28;20037;-41
2022/11/19 12:46:32;;;;;;;7.00;1.85;;;;;;;;;;4985674;28;20057;-40
2022/11/19 12:49:23;;;;;;;10.50;1.20;;;;;;;;;;4987596;28;20093;-40
2022/11/19 12:51:51;;;;;;;5.43;0.85;;;;;;;;;;4985633;28;20042;-40
2022/11/19 12:54:20;;;;;;;7.75;1.25;;;;;;;;;;4990487;28;20030;-40
2022/11/19 12:56:46;;;;;;;3.38;0.88;;;;;;;;;;4987508;28;20038;-39
2022/11/19 12:59:31;;;;;;;3.38;0.70;;;;;;;;;;4982459;28;20030;-39
2022/11/19 13:01:59;;;;;;;5.03;0.98;;;;;;;;;;4983544;28;20100;-40
2022/11/19 13:04:31;;;;;;;1.33;0.60;;;;;;;;;;4985087;28;20030;-39
2022/11/19 13:06:57;;;;;;;3.60;0.77;;;;;;;;;;4985970;28;20045;-40
2022/11/19 13:09:26;;;;;;;4.72;1.10;;;;;;;;;;4985821;28;20026;-39
2022/11/19 13:11:54;;;;;;;3.33;0.93;;;;;;;;;;4986313;28;20041;-40
2022/11/19 13:14:27;;;;;;;1.25;0.60;;;;;;;;;;4986662;28;20034;-40
2022/11/19 13:16:54;;;;;;;3.85;0.90;;;;;;;;;;4986223;28;20106;-40
2022/11/19 13:19:25;;;;;;;2.88;0.90;;;;;;;;;;4988288;28;20117;-40
2022/11/19 13:22:12;;;;;;;2.35;0.70;;;;;;;;;;4985254;28;20130;-40
2022/11/19 13:24:54;;;;;;;2.75;0.93;;;;;;;;;;4973856;28;20042;-42
2022/11/19 13:27:22;;;;;;;2.67;0.90;;;;;;;;;;4984263;28;20099;-39
2022/11/19 13:29:54;;;;;;;2.97;0.90;;;;;;;;;;4989752;28;20374;-40
2022/11/19 13:32:28;;;;;;;3.38;0.95;;;;;;;;;;4982663;28;20046;-42
2022/11/19 13:35:00;;;;;;;1.02;0.50;;;;;;;;;;4986773;28;20034;-40
2022/11/19 13:37:26;;;;;;;;;;;;;;;;;;4979039;28;20049;-39
2022/11/19 13:40:00;;;;;;;1.15;0.60;;;;;;;;;;4989612;28;19906;-40
2022/11/19 13:45:16;;;;;;;1.38;0.50;;;;;;;;;;4987040;28;20097;-39
2022/11/19 13:47:54;;;;;;;2.22;0.50;;;;;;;;;;4980564;28;20050;-42
2022/11/19 13:50:22;;;;;;;2.35;0.70;;;;;;;;;;4989087;28;20031;-40
2022/11/19 13:53:11;;;;;;;3.42;0.80;;;;;;;;;;4991771;28;20049;-40
2022/11/19 13:55:39;;;;;;;4.50;0.60;;;;;;;;;;4994190;28;20113;-42
2022/11/19 13:58:18;;;;;;;7.65;1.23;;;;;;;;;;4992926;28;20042;-39
2022/11/19 14:00:58;;;;;;;3.20;1.27;;;;;;;;;;4981646;28;20049;-40
2022/11/19 14:03:36;;;;;;;4.20;0.63;;;;;;;;;;4980522;28;20121;-40
2022/11/19 14:06:02;;;;;;;2.47;0.60;;;;;;;;;;4992149;28;20495;-39
2022/11/19 14:08:46;;;;;;;1.92;0.82;;;;;;;;;;4981506;28;20072;-40
2022/11/19 14:11:31;;;;;;;4.97;0.80;;;;;;;;;;4987733;28;20050;-40
2022/11/19 14:14:00;;;;;;;1.70;0.40;;;;;;;;;;4993156;28;20047;-40
2022/11/19 14:28:42;;;;;;;3.35;0.63;;;;;;;;;;4994387;28;20443;-40
2022/11/19 14:31:08;;;;;;;1.73;0.60;;;;;;;;;;4994270;28;20542;-39
2022/11/19 14:34:02;;;;;;;2.17;0.70;;;;;;;;;;4994403;28;20081;-40
2022/11/19 14:36:28;;;;;;;1.35;0.60;;;;;;;;;;4979827;28;20046;-39
2022/11/19 14:39:00;;;;;;;2.65;0.95;;;;;;;;;;4993910;28;20026;-39
2022/11/19 14:41:35;;;;;;;4.47;0.93;;;;;;;;;;4994254;28;20038;-39
2022/11/19 14:44:09;;;;;;;2.65;0.52;;;;;;;;;;4993829;28;20068;-40
2022/11/19 14:46:39;;;;;;;1.92;0.90;;;;;;;;;;4993606;28;20034;-39
2022/11/19 14:49:13;;;;;;;0.90;0.60;;;;;;;;;;4994421;28;20065;-39
2022/11/19 14:51:40;;;;;;;2.55;0.90;;;;;;;;;;4993836;28;20471;-39
2022/11/19 14:54:16;;;;;;;2.45;0.82;;;;;;;;;;4987296;28;20041;-39
2022/11/19 14:56:44;;;;;;;2.38;0.90;;;;;;;;;;4992998;28;20019;-43
2022/11/19 14:59:19;;;;;;;4.32;1.17;;;;;;;;;;4994156;28;20041;-39
2022/11/19 15:01:52;;;;;;;3.67;0.60;;;;;;;;;;4992643;28;20491;-40
2022/11/19 15:04:19;;;;;;;1.20;0.60;;;;;;;;;;4994011;28;20039;-40
2022/11/19 15:06:45;;;;;;;6.38;1.00;;;;;;;;;;4992408;28;20488;-39
2022/11/19 15:09:11;;;;;;;0.88;0.60;;;;;;;;;;4992580;28;20146;-39
2022/11/19 15:12:00;;;;;;;1.27;0.55;;;;;;;;;;4993431;28;20444;-39
2022/11/19 15:14:37;;;;;;;0.73;0.40;;;;;;;;;;4983457;28;20103;-39
2022/11/19 15:17:03;;;;;;;1.45;0.55;;;;;;;;;;4992900;28;20042;-40
2022/11/19 15:19:32;;;;;;;1.73;0.80;;;;;;;;;;4994166;28;20109;-39
2022/11/19 15:21:58;;;;;;;1.98;0.70;;;;;;;;;;4991904;28;20030;-39
2022/11/19 15:24:40;;;;;;;2.40;0.90;;;;;;;;;;4994836;28;20358;-39
2022/11/19 15:27:24;;;;;;;1.17;0.70;;;;;;;;;;4991549;28;20483;-39
2022/11/19 15:30:05;;;;;;;1.27;0.68;;;;;;;;;;4992517;28;20026;-39